createdAt,value
2022-12-29T00:01:59.527Z,88.88
2022-12-29T00:04:26.584Z,88.44
2022-12-29T00:06:54.117Z,88.52
2022-12-29T00:09:20.523Z,88.02
2022-12-29T00:11:47.547Z,87.85
2022-12-29T00:14:32.728Z,88.75
2022-12-29T00:16:59.407Z,87.93
2022-12-29T00:19:44.606Z,87.93
2022-12-29T00:22:32.343Z,88.09
2022-12-29T00:25:17.730Z,88.33
2022-12-29T00:28:07.429Z,87.61
2022-12-29T00:30:55.622Z,87.71
2022-12-29T00:33:44.800Z,88.31
2022-12-29T00:36:14.316Z,88.24
2022-12-29T00:39:04.820Z,88.27
2022-12-29T00:41:49.901Z,88.33
2022-12-29T00:44:16.265Z,88.28
2022-12-29T00:46:43.917Z,88.37
2022-12-29T00:49:31.639Z,87.81
2022-12-29T00:52:04.349Z,87.63
2022-12-29T00:54:34.293Z,87.36
2022-12-29T00:57:01.311Z,87.30
2022-12-29T00:59:27.766Z,86.48
2022-12-29T01:01:55.720Z,85.50
2022-12-29T01:04:24.216Z,85.19
2022-12-29T01:06:50.873Z,84.88
2022-12-29T01:09:37.471Z,84.52
2022-12-29T01:12:04.732Z,84.83
2022-12-29T01:14:31.490Z,83.71
2022-12-29T01:16:58.559Z,83.54
2022-12-29T01:19:25.642Z,82.25
2022-12-29T01:21:52.547Z,81.53
2022-12-29T01:24:20.842Z,81.44
2022-12-29T01:26:48.538Z,81.52
2022-12-29T01:29:15.269Z,81.54
2022-12-29T01:31:41.731Z,81.67
2022-12-29T01:34:08.496Z,81.78
2022-12-29T01:36:35.150Z,81.76
2022-12-29T01:39:01.533Z,82.19
2022-12-29T01:41:28.611Z,81.93
2022-12-29T01:43:58.490Z,82.47
2022-12-29T01:46:43.037Z,82.36
2022-12-29T01:49:09.735Z,82.54
2022-12-29T01:51:42.117Z,82.07
2022-12-29T01:54:14.928Z,82.46
2022-12-29T01:56:41.879Z,82.11
2022-12-29T01:59:16.707Z,81.28
2022-12-29T02:01:45.786Z,80.58
2022-12-29T02:04:13.417Z,80.62
2022-12-29T02:06:51.161Z,80.07
2022-12-29T02:09:17.659Z,79.85
2022-12-29T02:11:44.740Z,79.82
2022-12-29T02:14:12.890Z,79.57
2022-12-29T02:17:20.052Z,79.26
2022-12-29T02:20:06.237Z,79.17
2022-12-29T02:23:12.110Z,79.27
2022-12-29T02:26:11.376Z,79.57
2022-12-29T02:28:59.872Z,79.47
2022-12-29T02:31:31.608Z,79.44
2022-12-29T02:34:19.483Z,79.46
2022-12-29T02:36:48.621Z,79.32
2022-12-29T02:39:17.836Z,79.40
2022-12-29T02:41:59.737Z,79.42
2022-12-29T02:44:30.965Z,79.40
2022-12-29T02:47:39.288Z,79.43
2022-12-29T02:50:36.287Z,79.73
2022-12-29T02:53:12.381Z,80.05
2022-12-29T02:55:38.736Z,80.36
2022-12-29T02:58:23.298Z,80.13
2022-12-29T03:01:30.226Z,80.66
2022-12-29T03:03:56.712Z,80.51
2022-12-29T03:06:23.017Z,80.60
2022-12-29T03:08:52.968Z,81.07
2022-12-29T03:11:38.061Z,80.66
2022-12-29T03:14:44.232Z,81.20
2022-12-29T03:17:23.569Z,81.13
2022-12-29T03:19:55.031Z,81.06
2022-12-29T03:22:28.253Z,80.92
2022-12-29T03:25:07.651Z,80.97
2022-12-29T03:27:50.784Z,81.02
2022-12-29T03:30:18.996Z,81.19
2022-12-29T03:32:50.396Z,81.13
2022-12-29T03:35:20.077Z,81.70
2022-12-29T03:37:58.995Z,81.34
2022-12-29T03:40:27.831Z,81.79
2022-12-29T03:42:55.430Z,81.97
2022-12-29T03:45:21.761Z,81.71
2022-12-29T03:47:48.790Z,81.52
2022-12-29T03:50:15.305Z,82.03
2022-12-29T03:52:41.648Z,81.69
2022-12-29T03:55:08.985Z,81.89
2022-12-29T03:57:35.357Z,82.07
2022-12-29T04:00:01.835Z,81.80
2022-12-29T04:02:28.665Z,82.01
2022-12-29T04:04:55.520Z,82.04
2022-12-29T04:07:22.151Z,81.67
2022-12-29T04:09:49.048Z,81.24
2022-12-29T04:12:15.432Z,81.34
2022-12-29T04:14:41.947Z,81.18
2022-12-29T04:17:08.642Z,81.58
2022-12-29T04:19:35.016Z,81.37
2022-12-29T04:22:01.922Z,81.48
2022-12-29T04:24:28.283Z,81.47
2022-12-29T04:26:54.673Z,80.89
2022-12-29T04:29:21.660Z,80.87
2022-12-29T04:31:48.182Z,80.94
2022-12-29T04:34:14.667Z,80.57
2022-12-29T04:36:41.670Z,80.68
2022-12-29T04:39:08.116Z,80.67
2022-12-29T04:41:34.535Z,80.22
2022-12-29T04:44:01.411Z,80.56
2022-12-29T04:46:27.798Z,80.24
2022-12-29T04:48:54.144Z,80.39
2022-12-29T04:51:20.907Z,79.97
2022-12-29T04:53:47.283Z,79.99
2022-12-29T04:56:13.623Z,80.10
2022-12-29T04:58:40.351Z,79.63
2022-12-29T05:01:06.691Z,80.34
2022-12-29T05:03:33.891Z,80.63
2022-12-29T05:06:00.622Z,80.36
2022-12-29T05:08:28.626Z,80.91
2022-12-29T05:10:55.401Z,80.39
2022-12-29T05:13:22.117Z,80.36
2022-12-29T05:15:53.923Z,80.29
2022-12-29T05:18:20.826Z,80.29
2022-12-29T05:20:48.621Z,80.74
2022-12-29T05:23:15.376Z,80.96
2022-12-29T05:25:42.438Z,80.95
2022-12-29T05:28:08.820Z,81.03
2022-12-29T05:30:35.201Z,80.91
2022-12-29T05:33:01.855Z,80.92
2022-12-29T05:35:28.426Z,81.03
2022-12-29T05:37:55.136Z,81.63
2022-12-29T05:40:21.533Z,81.71
2022-12-29T05:42:47.869Z,81.20
2022-12-29T05:45:14.518Z,81.54
2022-12-29T05:47:40.902Z,82.14
2022-12-29T05:50:07.626Z,83.21
2022-12-29T05:52:34.705Z,82.07
2022-12-29T05:55:01.075Z,81.91
2022-12-29T05:57:27.549Z,81.97
2022-12-29T05:59:54.250Z,81.52
2022-12-29T06:02:20.717Z,81.14
2022-12-29T06:04:47.190Z,80.97
2022-12-29T06:07:14.106Z,80.67
2022-12-29T06:09:40.452Z,80.93
2022-12-29T06:12:06.961Z,80.04
2022-12-29T06:14:33.688Z,79.93
2022-12-29T06:17:00.791Z,79.33
2022-12-29T06:19:27.124Z,79.03
2022-12-29T06:21:54.448Z,79.38
2022-12-29T06:24:21.128Z,79.54
2022-12-29T06:26:47.466Z,79.64
2022-12-29T06:29:17.946Z,80.06
2022-12-29T06:31:50.189Z,80.11
2022-12-29T06:34:16.697Z,79.76
2022-12-29T06:36:44.073Z,79.99
2022-12-29T06:39:11.608Z,81.20
2022-12-29T06:41:38.712Z,81.70
2022-12-29T06:44:05.424Z,81.70
2022-12-29T06:46:31.857Z,82.65
2022-12-29T06:48:58.357Z,82.71
2022-12-29T06:51:25.044Z,82.34
2022-12-29T06:53:51.370Z,82.28
2022-12-29T06:56:17.754Z,82.32
2022-12-29T06:58:44.797Z,82.90
2022-12-29T07:01:11.157Z,83.39
2022-12-29T07:03:37.657Z,83.31
2022-12-29T07:06:05.413Z,83.64
2022-12-29T07:08:31.733Z,83.43
2022-12-29T07:10:58.060Z,83.59
2022-12-29T07:13:25.113Z,83.62
2022-12-29T07:15:51.440Z,83.59
2022-12-29T07:18:17.844Z,83.91
2022-12-29T07:20:44.787Z,83.75
2022-12-29T07:23:11.275Z,83.67
2022-12-29T07:25:37.734Z,83.91
2022-12-29T07:28:05.305Z,83.89
2022-12-29T07:30:31.667Z,83.48
2022-12-29T07:32:58.310Z,83.61
2022-12-29T07:35:25.412Z,83.38
2022-12-29T07:37:51.866Z,83.71
2022-12-29T07:40:18.204Z,82.91
2022-12-29T07:42:44.936Z,82.57
2022-12-29T07:45:11.917Z,82.30
2022-12-29T07:47:38.281Z,81.93
2022-12-29T07:50:06.020Z,81.76
2022-12-29T07:52:32.356Z,81.76
2022-12-29T07:54:59.336Z,82.21
2022-12-29T07:57:31.470Z,82.15
2022-12-29T07:59:59.467Z,82.32
2022-12-29T08:02:27.317Z,82.33
2022-12-29T08:04:53.987Z,82.27
2022-12-29T08:07:20.628Z,82.00
2022-12-29T08:09:46.984Z,81.82
2022-12-29T08:12:13.316Z,81.86
2022-12-29T08:14:40.047Z,81.71
2022-12-29T08:17:06.863Z,80.86
2022-12-29T08:19:33.272Z,80.90
2022-12-29T08:21:59.667Z,80.62
2022-12-29T08:24:26.039Z,80.79
2022-12-29T08:26:53.086Z,80.99
2022-12-29T08:29:21.002Z,80.53
2022-12-29T08:31:47.417Z,80.97
2022-12-29T08:34:14.135Z,80.95
2022-12-29T08:36:41.113Z,80.70
2022-12-29T08:39:07.458Z,80.50
2022-12-29T08:41:33.802Z,80.76
2022-12-29T08:44:00.555Z,79.89
2022-12-29T08:46:26.933Z,80.29
2022-12-29T08:48:54.567Z,80.08
2022-12-29T08:51:24.784Z,80.00
2022-12-29T08:53:51.638Z,79.45
2022-12-29T08:56:18.236Z,79.88
2022-12-29T08:58:44.968Z,79.16
2022-12-29T09:01:11.757Z,78.88
2022-12-29T09:04:12.907Z,78.88
2022-12-29T09:06:25.209Z,77.98
2022-12-29T09:08:51.544Z,78.54
2022-12-29T09:11:21.275Z,77.90
2022-12-29T09:13:49.179Z,77.74
2022-12-29T09:16:17.228Z,77.22
2022-12-29T09:18:44.755Z,77.39
2022-12-29T09:21:12.972Z,76.06
2022-12-29T09:23:40.951Z,77.04
2022-12-29T09:26:08.510Z,76.02
2022-12-29T09:28:35.358Z,75.73
2022-12-29T09:31:02.381Z,75.46
2022-12-29T09:33:28.946Z,75.24
2022-12-29T09:35:59.122Z,75.57
2022-12-29T09:38:27.974Z,74.89
2022-12-29T09:41:05.857Z,74.61
2022-12-29T09:43:54.202Z,74.79
2022-12-29T09:46:29.364Z,75.25
2022-12-29T09:49:11.056Z,74.53
2022-12-29T09:51:40.688Z,74.86
2022-12-29T09:54:33.685Z,74.21
2022-12-29T09:57:00.139Z,74.14
2022-12-29T09:59:40.817Z,73.46
2022-12-29T10:02:24.138Z,73.93
2022-12-29T10:04:50.689Z,74.55
2022-12-29T10:07:31.079Z,74.47
2022-12-29T10:10:14.137Z,74.46
2022-12-29T10:12:51.214Z,74.77
2022-12-29T10:15:56.523Z,74.00
2022-12-29T10:18:35.327Z,73.59
2022-12-29T10:21:18.666Z,73.25
2022-12-29T10:23:52.724Z,72.35
2022-12-29T10:26:27.950Z,72.49
2022-12-29T10:29:03.400Z,71.53
2022-12-29T10:31:44.742Z,71.07
2022-12-29T10:34:23.062Z,71.33
2022-12-29T10:36:57.702Z,71.04
2022-12-29T10:39:31.792Z,71.04
2022-12-29T10:42:26.175Z,70.83
2022-12-29T10:44:54.207Z,70.75
2022-12-29T10:47:25.647Z,70.68
2022-12-29T10:49:52.142Z,71.47
2022-12-29T10:52:21.152Z,71.17
2022-12-29T10:54:52.737Z,71.52
2022-12-29T10:57:29.448Z,71.74
2022-12-29T10:59:56.374Z,71.59
2022-12-29T11:02:41.590Z,71.98
2022-12-29T11:05:15.981Z,71.68
2022-12-29T11:07:42.677Z,71.72
2022-12-29T11:10:33.406Z,71.99
2022-12-29T11:13:12.799Z,72.06
2022-12-29T11:15:44.584Z,72.10
2022-12-29T11:18:38.025Z,71.90
2022-12-29T11:21:25.609Z,72.30
2022-12-29T11:24:09.650Z,72.09
2022-12-29T11:26:36.514Z,72.70
2022-12-29T11:29:09.008Z,72.83
2022-12-29T11:31:46.660Z,72.52
2022-12-29T11:34:31.344Z,72.61
2022-12-29T11:37:13.062Z,72.40
2022-12-29T11:39:50.426Z,72.30
2022-12-29T11:42:23.283Z,72.38
2022-12-29T11:44:52.197Z,72.34
2022-12-29T11:47:28.265Z,72.33
2022-12-29T11:49:58.076Z,72.45
2022-12-29T11:52:31.278Z,72.58
2022-12-29T11:54:58.384Z,72.17
2022-12-29T11:57:26.529Z,72.03
2022-12-29T11:59:56.345Z,72.18
2022-12-29T12:02:40.491Z,71.76
2022-12-29T12:05:21.260Z,71.47
2022-12-29T12:07:55.706Z,71.21
2022-12-29T12:10:28.268Z,71.08
2022-12-29T12:13:04.120Z,70.73
2022-12-29T12:15:44.921Z,70.88
2022-12-29T12:18:18.051Z,71.56
2022-12-29T12:20:55.428Z,73.08
2022-12-29T12:23:41.413Z,73.24
2022-12-29T12:26:16.532Z,73.30
2022-12-29T12:29:14.308Z,72.70
2022-12-29T12:31:50.857Z,72.49
2022-12-29T12:34:20.953Z,72.54
2022-12-29T12:36:58.342Z,72.29
2022-12-29T12:39:38.983Z,71.87
2022-12-29T12:42:25.191Z,72.15
2022-12-29T12:44:51.501Z,72.14
2022-12-29T12:47:36.537Z,72.17
2022-12-29T12:50:27.849Z,72.55
2022-12-29T12:53:25.101Z,72.63
2022-12-29T12:56:22.913Z,73.04
2022-12-29T12:59:01.923Z,73.39
2022-12-29T13:02:11.246Z,73.33
2022-12-29T13:04:57.478Z,73.81
2022-12-29T13:07:36.193Z,74.49
2022-12-29T13:10:17.744Z,75.33
2022-12-29T13:13:16.995Z,76.38
2022-12-29T13:15:53.027Z,76.83
2022-12-29T13:18:22.402Z,77.70
2022-12-29T13:21:03.305Z,77.35
2022-12-29T13:23:48.426Z,77.83
2022-12-29T13:26:33.614Z,77.29
2022-12-29T13:29:13.966Z,76.94
2022-12-29T13:31:55.347Z,77.36
2022-12-29T13:34:42.205Z,77.47
2022-12-29T13:37:17.388Z,77.36
2022-12-29T13:39:59.141Z,77.38
2022-12-29T13:42:27.085Z,77.33
2022-12-29T13:45:07.211Z,77.35
2022-12-29T13:47:37.926Z,77.38
2022-12-29T13:50:08.054Z,77.40
2022-12-29T13:52:50.136Z,77.69
2022-12-29T13:55:21.040Z,77.90
2022-12-29T13:58:24.180Z,77.75
2022-12-29T14:01:13.759Z,78.15
2022-12-29T14:03:52.831Z,77.65
2022-12-29T14:06:30.370Z,77.90
2022-12-29T14:09:02.483Z,78.01
2022-12-29T14:11:41.378Z,77.90
2022-12-29T14:14:22.019Z,77.67
2022-12-29T14:16:49.667Z,77.45
2022-12-29T14:19:20.399Z,77.70
2022-12-29T14:22:03.588Z,78.11
2022-12-29T14:24:35.957Z,78.32
2022-12-29T14:27:11.987Z,77.83
2022-12-29T14:29:41.334Z,78.31
2022-12-29T14:32:26.570Z,78.66
2022-12-29T14:34:56.906Z,78.99
2022-12-29T14:37:29.745Z,79.09
2022-12-29T14:40:20.677Z,79.20
2022-12-29T14:42:49.261Z,79.07
2022-12-29T14:45:15.631Z,78.82
2022-12-29T14:47:46.794Z,79.02
2022-12-29T14:50:23.302Z,78.84
2022-12-29T14:53:00.019Z,79.02
2022-12-29T14:55:49.626Z,79.04
2022-12-29T14:58:23.342Z,78.99
2022-12-29T15:00:50.958Z,78.87
2022-12-29T15:03:31.142Z,79.46
2022-12-29T15:06:09.445Z,79.31
2022-12-29T15:08:46.633Z,79.79
2022-12-29T15:11:18.790Z,79.80
2022-12-29T15:13:46.609Z,80.02
2022-12-29T15:16:31.291Z,80.03
2022-12-29T15:18:58.949Z,80.70
2022-12-29T15:21:29.672Z,80.53
2022-12-29T15:23:56.023Z,80.95
2022-12-29T15:26:24.065Z,81.33
2022-12-29T15:28:52.657Z,81.79
2022-12-29T15:31:28.043Z,82.06
2022-12-29T15:34:11.074Z,82.85
2022-12-29T15:36:42.146Z,83.19
2022-12-29T15:39:28.517Z,83.30
2022-12-29T15:42:00.840Z,83.58
2022-12-29T15:44:33.585Z,82.85
2022-12-29T15:47:05.103Z,83.19
2022-12-29T15:49:32.763Z,83.48
2022-12-29T15:52:00.384Z,83.51
2022-12-29T15:54:32.061Z,83.98
2022-12-29T15:56:58.427Z,84.11
2022-12-29T15:59:34.774Z,84.52
2022-12-29T16:02:08.584Z,84.04
2022-12-29T16:05:08.786Z,84.90
2022-12-29T16:07:29.219Z,85.36
2022-12-29T16:09:58.937Z,85.73
2022-12-29T16:12:32.344Z,85.15
2022-12-29T16:15:02.130Z,86.26
2022-12-29T16:17:32.266Z,86.46
2022-12-29T16:20:03.585Z,86.95
2022-12-29T16:22:37.849Z,87.68
2022-12-29T16:25:13.241Z,87.98
2022-12-29T16:27:43.585Z,88.21
2022-12-29T16:30:29.546Z,87.99
2022-12-29T16:33:05.714Z,88.47
2022-12-29T16:35:44.200Z,87.51
2022-12-29T16:38:22.784Z,87.19
2022-12-29T16:41:02.900Z,87.11
2022-12-29T16:43:33.148Z,87.57
2022-12-29T16:45:59.684Z,88.18
2022-12-29T16:48:28.760Z,87.83
2022-12-29T16:51:15.461Z,87.92
2022-12-29T16:53:48.088Z,87.14
2022-12-29T16:56:20.044Z,87.35
2022-12-29T16:58:54.500Z,87.47
2022-12-29T17:01:22.112Z,88.37
2022-12-29T17:04:05.604Z,87.31
2022-12-29T17:06:32.599Z,87.29
2022-12-29T17:08:59.240Z,87.85
2022-12-29T17:11:58.338Z,88.12
2022-12-29T17:14:36.786Z,88.73
2022-12-29T17:17:06.716Z,88.21
2022-12-29T17:19:35.755Z,88.83
2022-12-29T17:22:03.724Z,88.66
2022-12-29T17:24:30.508Z,88.92
2022-12-29T17:26:59.484Z,89.26
2022-12-29T17:29:34.931Z,90.08
2022-12-29T17:32:03.476Z,90.23
2022-12-29T17:34:30.122Z,90.42
2022-12-29T17:36:56.943Z,90.45
2022-12-29T17:39:23.324Z,90.44
2022-12-29T17:41:49.852Z,90.58
2022-12-29T17:44:18.988Z,90.57
2022-12-29T17:46:46.741Z,90.51
2022-12-29T17:49:18.324Z,90.45
2022-12-29T17:51:47.426Z,90.66
2022-12-29T17:54:25.904Z,91.17
2022-12-29T17:56:52.507Z,90.11
2022-12-29T17:59:19.452Z,90.09
2022-12-29T18:01:48.223Z,91.21
2022-12-29T18:04:18.533Z,90.75
2022-12-29T18:06:46.121Z,90.63
2022-12-29T18:09:14.707Z,90.36
2022-12-29T18:11:43.972Z,90.36
2022-12-29T18:14:15.761Z,90.35
2022-12-29T18:16:43.328Z,90.12
2022-12-29T18:19:10.418Z,90.11
2022-12-29T18:21:39.444Z,89.84
2022-12-29T18:24:06.516Z,90.41
2022-12-29T18:26:35.513Z,90.14
2022-12-29T18:29:01.903Z,90.31
2022-12-29T18:31:33.541Z,89.55
2022-12-29T18:34:02.328Z,89.84
2022-12-29T18:36:29.079Z,88.88
2022-12-29T18:38:55.483Z,88.89
2022-12-29T18:41:29.411Z,89.48
2022-12-29T18:43:56.436Z,89.03
2022-12-29T18:46:23.873Z,89.14
2022-12-29T18:48:51.218Z,89.04
2022-12-29T18:51:20.760Z,88.66
2022-12-29T18:53:47.948Z,87.83
2022-12-29T18:56:14.365Z,88.92
2022-12-29T18:58:41.737Z,88.33
2022-12-29T19:01:20.004Z,88.39
2022-12-29T19:03:46.833Z,88.69
2022-12-29T19:06:13.157Z,88.10
2022-12-29T19:08:39.493Z,87.81
2022-12-29T19:11:06.451Z,88.26
2022-12-29T19:13:33.665Z,87.62
2022-12-29T19:16:00.184Z,88.33
2022-12-29T19:18:46.347Z,87.92
2022-12-29T19:21:14.122Z,88.39
2022-12-29T19:23:41.014Z,87.74
2022-12-29T19:26:07.733Z,87.22
2022-12-29T19:28:34.064Z,87.42
2022-12-29T19:31:03.217Z,87.57
2022-12-29T19:33:29.827Z,88.55
2022-12-29T19:36:03.515Z,88.23
2022-12-29T19:38:29.975Z,88.15
2022-12-29T19:40:56.724Z,88.67
2022-12-29T19:43:23.451Z,88.28
2022-12-29T19:45:51.271Z,89.05
2022-12-29T19:48:20.895Z,88.16
2022-12-29T19:50:47.537Z,88.54
2022-12-29T19:53:14.851Z,88.11
2022-12-29T19:55:46.132Z,88.54
2022-12-29T19:58:13.372Z,88.83
2022-12-29T20:00:41.359Z,87.92
2022-12-29T20:03:08.083Z,88.10
2022-12-29T20:05:34.868Z,88.53
2022-12-29T20:08:01.719Z,88.22
2022-12-29T20:10:28.050Z,88.48
2022-12-29T20:12:54.380Z,87.17
2022-12-29T20:15:20.945Z,87.78
2022-12-29T20:18:13.201Z,87.84
2022-12-29T20:20:34.647Z,87.87
2022-12-29T20:23:01.034Z,88.22
2022-12-29T20:25:53.648Z,88.32
2022-12-29T20:28:16.998Z,87.32
2022-12-29T20:30:43.851Z,87.86
2022-12-29T20:33:10.539Z,87.53
2022-12-29T20:35:37.917Z,88.15
2022-12-29T20:38:05.125Z,88.32
2022-12-29T20:40:31.689Z,88.03
2022-12-29T20:42:58.026Z,88.55
2022-12-29T20:45:24.862Z,88.64
2022-12-29T20:47:51.245Z,87.88
2022-12-29T20:50:18.227Z,87.83
2022-12-29T20:52:44.584Z,88.20
2022-12-29T20:55:10.927Z,88.72
2022-12-29T20:58:13.668Z,88.31
2022-12-29T21:00:25.572Z,89.20
2022-12-29T21:02:53.336Z,88.49
2022-12-29T21:05:24.422Z,89.35
2022-12-29T21:07:52.407Z,88.80
2022-12-29T21:10:18.877Z,89.11
2022-12-29T21:12:45.381Z,89.49
2022-12-29T21:15:14.926Z,89.18
2022-12-29T21:17:43.036Z,89.46
2022-12-29T21:20:10.447Z,88.63
2022-12-29T21:22:37.228Z,89.11
2022-12-29T21:25:03.785Z,89.37
2022-12-29T21:27:30.184Z,89.91
2022-12-29T21:29:58.571Z,89.56
2022-12-29T21:32:24.938Z,90.00
2022-12-29T21:34:51.282Z,89.96
2022-12-29T21:37:23.360Z,89.52
2022-12-29T21:39:50.190Z,89.79
2022-12-29T21:42:16.530Z,90.76
2022-12-29T21:45:01.862Z,90.44
2022-12-29T21:47:48.151Z,90.53
2022-12-29T21:50:14.641Z,91.02
2022-12-29T21:52:40.955Z,91.68
2022-12-29T21:55:08.874Z,91.30
2022-12-29T22:01:02.405Z,92.82
2022-12-29T22:03:48.642Z,92.53
2022-12-29T22:06:33.879Z,92.50
2022-12-29T22:09:20.605Z,92.48
2022-12-29T22:12:05.794Z,92.97
2022-12-29T22:14:32.155Z,92.73
2022-12-29T22:16:58.517Z,93.18
2022-12-29T22:19:25.332Z,92.89
2022-12-29T22:21:51.702Z,92.85
2022-12-29T22:24:18.908Z,93.60
2022-12-29T22:26:45.600Z,93.19
2022-12-29T22:29:11.965Z,93.77
2022-12-29T22:31:38.373Z,93.20
2022-12-29T22:34:05.264Z,93.76
2022-12-29T22:36:32.237Z,93.68
2022-12-29T22:38:58.708Z,93.86
2022-12-29T22:41:25.330Z,93.94
2022-12-29T22:43:51.829Z,93.52
2022-12-29T22:46:18.910Z,93.18
2022-12-29T22:48:45.283Z,93.26
2022-12-29T22:51:11.661Z,93.72
2022-12-29T22:53:38.448Z,93.84
2022-12-29T22:56:13.056Z,93.67
2022-12-29T22:58:41.440Z,93.59
2022-12-29T23:01:08.749Z,92.93
2022-12-29T23:03:35.824Z,93.54
2022-12-29T23:06:04.676Z,93.21
2022-12-29T23:08:33.335Z,92.92
2022-12-29T23:10:59.801Z,92.90
2022-12-29T23:13:26.355Z,93.34
2022-12-29T23:15:52.754Z,93.65
2022-12-29T23:18:19.251Z,93.04
2022-12-29T23:20:49.030Z,93.33
2022-12-29T23:23:36.384Z,92.98
2022-12-29T23:26:03.646Z,93.03
2022-12-29T23:28:30.036Z,93.58
2022-12-29T23:30:56.614Z,93.63
2022-12-29T23:33:23.339Z,93.55
2022-12-29T23:35:49.865Z,93.53
2022-12-29T23:38:16.206Z,94.07
2022-12-29T23:40:42.869Z,93.76
2022-12-29T23:43:09.184Z,93.75
2022-12-29T23:45:36.326Z,94.10
2022-12-29T23:48:03.119Z,94.42
2022-12-29T23:50:29.543Z,94.84
2022-12-29T23:52:55.864Z,94.81
2022-12-29T23:55:22.699Z,95.36
2022-12-29T23:57:49.071Z,94.65
